createdAt,value
2018-11-27T00:00:23.455Z,14.90
2018-11-27T00:01:23.440Z,14.50
2018-11-27T00:02:23.436Z,14.60
2018-11-27T00:03:23.410Z,14.00
2018-11-27T00:04:23.397Z,14.40
2018-11-27T00:05:23.416Z,13.90
2018-11-27T00:06:23.376Z,14.10
2018-11-27T00:07:23.363Z,14.50
2018-11-27T00:08:23.354Z,14.50
2018-11-27T00:09:23.353Z,12.80
2018-11-27T00:10:23.331Z,14.10
2018-11-27T00:11:23.333Z,13.70
2018-11-27T00:12:23.310Z,14.10
2018-11-27T00:13:23.294Z,13.90
2018-11-27T00:14:23.284Z,14.20
2018-11-27T00:15:23.277Z,14.80
2018-11-27T00:16:23.305Z,14.00
2018-11-27T00:17:23.248Z,14.90
2018-11-27T00:18:23.236Z,14.40
2018-11-27T00:19:23.227Z,14.20
2018-11-27T00:20:23.217Z,13.90
2018-11-27T00:21:23.226Z,14.60
2018-11-27T00:22:23.192Z,14.30
2018-11-27T00:23:23.186Z,14.20
2018-11-27T00:24:23.170Z,13.70
2018-11-27T00:25:23.156Z,13.90
2018-11-27T00:26:23.161Z,13.60
2018-11-27T00:27:23.137Z,13.80
2018-11-27T00:28:23.124Z,13.10
2018-11-27T00:29:23.111Z,13.20
2018-11-27T00:30:23.106Z,13.90
2018-11-27T00:31:23.101Z,13.20
2018-11-27T00:32:23.081Z,13.60
2018-11-27T00:33:23.069Z,13.20
2018-11-27T00:34:23.057Z,13.50
2018-11-27T00:35:23.046Z,13.80
2018-11-27T00:36:23.046Z,13.60
2018-11-27T00:37:23.023Z,13.60
2018-11-27T00:38:23.011Z,12.80
2018-11-27T00:39:23.000Z,13.40
2018-11-27T00:40:30.017Z,13.90
2018-11-27T00:41:23.001Z,13.40
2018-11-27T00:42:22.971Z,13.40
2018-11-27T00:43:22.964Z,13.10
2018-11-27T00:44:22.944Z,13.30
2018-11-27T00:45:22.933Z,13.20
2018-11-27T00:46:22.931Z,13.00
2018-11-27T00:47:22.911Z,13.30
2018-11-27T00:48:22.898Z,13.80
2018-11-27T00:49:22.906Z,14.10
2018-11-27T00:50:22.874Z,13.70
2018-11-27T00:51:22.877Z,13.80
2018-11-27T00:52:22.855Z,12.90
2018-11-27T00:53:22.889Z,14.00
2018-11-27T00:54:22.835Z,12.90
2018-11-27T00:55:22.818Z,13.00
2018-11-27T00:56:22.818Z,13.60
2018-11-27T00:57:22.797Z,13.10
2018-11-27T00:58:22.784Z,13.70
2018-11-27T00:59:22.798Z,13.40
2018-11-27T01:00:22.766Z,13.90
2018-11-27T01:01:22.761Z,13.40
2018-11-27T01:02:22.741Z,13.90
2018-11-27T01:03:22.727Z,13.50
2018-11-27T01:04:22.722Z,13.60
2018-11-27T01:05:22.711Z,13.60
2018-11-27T01:06:22.718Z,13.30
2018-11-27T01:07:22.683Z,12.80
2018-11-27T01:08:22.671Z,13.30
2018-11-27T01:09:22.662Z,14.10
2018-11-27T01:10:22.651Z,13.30
2018-11-27T01:11:22.652Z,13.60
2018-11-27T01:12:22.629Z,13.30
2018-11-27T01:13:22.623Z,13.40
2018-11-27T01:14:22.606Z,14.30
2018-11-27T01:15:22.600Z,14.00
2018-11-27T01:16:22.600Z,13.40
2018-11-27T01:17:22.580Z,13.10
2018-11-27T01:18:22.560Z,13.50
2018-11-27T01:19:22.551Z,13.90
2018-11-27T01:20:22.539Z,14.10
2018-11-27T01:21:22.543Z,13.30
2018-11-27T01:22:22.530Z,13.60
2018-11-27T01:23:22.533Z,13.40
2018-11-27T01:24:22.498Z,13.70
2018-11-27T01:25:22.512Z,13.20
2018-11-27T01:26:22.553Z,14.40
2018-11-27T01:27:22.491Z,14.20
2018-11-27T01:28:22.489Z,14.50
2018-11-27T01:29:22.453Z,14.10
2018-11-27T01:30:22.430Z,14.40
2018-11-27T01:31:22.455Z,14.10
2018-11-27T01:32:22.857Z,13.00
2018-11-27T01:33:22.417Z,14.10
2018-11-27T01:34:22.394Z,14.00
2018-11-27T01:35:22.393Z,14.50
2018-11-27T01:36:22.362Z,13.60
2018-11-27T01:37:22.393Z,14.20
2018-11-27T01:38:22.349Z,13.90
2018-11-27T01:39:22.331Z,14.30
2018-11-27T01:40:22.319Z,13.60
2018-11-27T01:41:22.308Z,14.10
2018-11-27T01:42:22.327Z,14.00
2018-11-27T01:43:22.283Z,13.80
2018-11-27T01:44:22.287Z,13.90
2018-11-27T01:45:22.273Z,13.50
2018-11-27T01:46:22.277Z,13.90
2018-11-27T01:47:22.258Z,14.20
2018-11-27T01:48:22.236Z,13.70
2018-11-27T01:49:22.237Z,13.20
2018-11-27T01:50:22.226Z,13.90
2018-11-27T01:51:22.191Z,13.40
2018-11-27T01:52:22.200Z,13.30
2018-11-27T01:53:22.189Z,13.40
2018-11-27T01:54:22.177Z,13.60
2018-11-27T01:55:22.160Z,13.70
2018-11-27T01:56:22.144Z,13.40
2018-11-27T01:57:22.150Z,13.50
2018-11-27T01:58:22.115Z,13.70
2018-11-27T01:59:22.102Z,13.20
2018-11-27T02:00:22.088Z,13.90
2018-11-27T02:01:22.096Z,14.10
2018-11-27T02:02:22.105Z,13.00
2018-11-27T02:03:22.057Z,14.30
2018-11-27T02:04:22.047Z,14.40
2018-11-27T02:05:22.032Z,13.80
2018-11-27T02:06:22.026Z,13.80
2018-11-27T02:07:22.022Z,13.70
2018-11-27T02:08:22.024Z,13.70
2018-11-27T02:09:22.007Z,14.10
2018-11-27T02:10:21.983Z,13.60
2018-11-27T02:11:21.972Z,13.30
2018-11-27T02:12:22.364Z,14.10
2018-11-27T02:13:21.959Z,13.70
2018-11-27T02:14:21.967Z,14.10
2018-11-27T02:15:21.928Z,14.00
2018-11-27T02:16:21.910Z,13.70
2018-11-27T02:17:21.916Z,13.90
2018-11-27T02:18:21.906Z,14.10
2018-11-27T02:19:21.887Z,13.40
2018-11-27T02:20:21.872Z,14.10
2018-11-27T02:21:21.851Z,13.40
2018-11-27T02:22:21.861Z,14.10
2018-11-27T02:23:21.865Z,14.00
2018-11-27T02:24:21.828Z,14.40
2018-11-27T02:26:38.509Z,11.20
2018-11-27T02:27:38.510Z,12.70
2018-11-27T02:28:38.480Z,13.50
2018-11-27T02:29:38.467Z,14.20
2018-11-27T02:30:38.467Z,14.00
2018-11-27T02:31:38.443Z,14.00
2018-11-27T02:32:38.443Z,13.80
2018-11-27T02:33:38.421Z,13.10
2018-11-27T02:34:38.410Z,13.20
2018-11-27T02:35:38.401Z,14.10
2018-11-27T02:36:38.391Z,13.80
2018-11-27T02:37:38.392Z,14.00
2018-11-27T02:38:38.367Z,13.40
2018-11-27T02:39:38.354Z,13.60
2018-11-27T02:40:38.342Z,13.80
2018-11-27T02:41:38.332Z,14.10
2018-11-27T02:42:38.334Z,13.40
2018-11-27T02:43:38.311Z,13.80
2018-11-27T02:44:38.297Z,14.00
2018-11-27T02:45:38.287Z,13.40
2018-11-27T02:46:38.279Z,14.80
2018-11-27T02:47:38.275Z,13.70
2018-11-27T02:48:38.252Z,14.20
2018-11-27T02:49:38.242Z,13.90
2018-11-27T02:50:38.232Z,13.00
2018-11-27T02:51:38.223Z,14.00
2018-11-27T02:52:38.223Z,13.70
2018-11-27T02:53:38.201Z,14.40
2018-11-27T02:54:38.191Z,13.40
2018-11-27T02:55:38.181Z,13.70
2018-11-27T02:56:38.168Z,14.30
2018-11-27T02:57:38.173Z,13.70
2018-11-27T02:58:50.190Z,13.80
2018-11-27T02:59:38.146Z,14.20
2018-11-27T03:00:38.126Z,13.90
2018-11-27T03:01:46.147Z,13.70
2018-11-27T03:02:38.128Z,14.30
2018-11-27T03:03:38.097Z,13.90
2018-11-27T03:04:38.080Z,14.40
2018-11-27T03:05:38.081Z,14.40
2018-11-27T03:06:38.060Z,13.60
2018-11-27T03:07:38.056Z,14.20
2018-11-27T03:08:38.053Z,14.10
2018-11-27T03:09:38.025Z,13.90
2018-11-27T03:10:50.027Z,14.00
2018-11-27T03:11:38.020Z,13.80
2018-11-27T03:12:38.011Z,14.00
2018-11-27T03:13:37.981Z,13.50
2018-11-27T03:14:46.010Z,12.90
2018-11-27T03:15:48.611Z,13.40
2018-11-27T03:16:37.955Z,14.20
2018-11-27T03:17:46.588Z,13.80
2018-11-27T03:18:37.938Z,13.50
2018-11-27T03:19:37.923Z,14.50
2018-11-27T03:20:45.576Z,14.20
2018-11-27T03:21:37.902Z,13.70
2018-11-27T03:22:37.916Z,13.30
2018-11-27T03:23:37.883Z,13.30
2018-11-27T03:24:37.860Z,13.20
2018-11-27T03:25:49.903Z,13.90
2018-11-27T03:26:37.848Z,14.00
2018-11-27T03:27:47.864Z,13.70
2018-11-27T03:28:37.837Z,13.70
2018-11-27T03:29:44.841Z,13.40
2018-11-27T03:30:47.054Z,13.70
2018-11-27T03:31:44.837Z,13.80
2018-11-27T03:32:37.778Z,14.20
2018-11-27T03:33:37.802Z,13.10
2018-11-27T03:34:38.640Z,14.60
2018-11-27T03:35:37.741Z,13.70
2018-11-27T03:36:37.729Z,13.90
2018-11-27T03:37:44.770Z,13.70
2018-11-27T03:38:44.762Z,13.60
2018-11-27T03:39:37.700Z,14.00
2018-11-27T03:40:38.210Z,12.80
2018-11-27T03:41:37.672Z,13.40
2018-11-27T03:42:37.663Z,13.20
2018-11-27T03:43:37.669Z,12.80
2018-11-27T03:44:37.641Z,14.20
2018-11-27T03:45:37.634Z,13.90
2018-11-27T03:46:37.622Z,14.00
2018-11-27T03:47:44.654Z,13.70
2018-11-27T03:48:37.613Z,13.90
2018-11-27T03:49:37.591Z,12.90
2018-11-27T03:50:37.580Z,13.50
2018-11-27T03:51:37.596Z,13.80
2018-11-27T03:52:37.558Z,14.50
2018-11-27T03:53:37.554Z,13.60
2018-11-27T03:54:37.534Z,13.80
2018-11-27T03:55:37.519Z,14.20
2018-11-27T03:56:37.521Z,13.20
2018-11-27T03:57:38.246Z,13.10
2018-11-27T03:58:37.499Z,13.80
2018-11-27T03:59:37.478Z,13.60
2018-11-27T04:00:37.467Z,13.20
2018-11-27T04:01:37.457Z,13.30
2018-11-27T04:02:37.447Z,13.00
2018-11-27T04:03:37.447Z,13.40
2018-11-27T04:04:37.422Z,13.30
2018-11-27T04:05:37.426Z,13.60
2018-11-27T04:06:37.403Z,13.80
2018-11-27T04:07:37.388Z,13.40
2018-11-27T04:08:37.398Z,13.30
2018-11-27T04:09:37.371Z,13.40
2018-11-27T04:10:37.360Z,13.10
2018-11-27T04:11:37.358Z,13.20
2018-11-27T04:12:37.337Z,13.40
2018-11-27T04:13:44.369Z,13.20
2018-11-27T04:14:37.338Z,13.00
2018-11-27T04:15:44.330Z,13.40
2018-11-27T04:16:37.293Z,13.20
2018-11-27T04:17:37.281Z,13.10
2018-11-27T04:18:37.287Z,13.40
2018-11-27T04:19:37.260Z,13.50
2018-11-27T04:20:37.250Z,14.40
2018-11-27T04:21:37.239Z,13.90
2018-11-27T04:22:37.225Z,13.60
2018-11-27T04:23:37.233Z,14.20
2018-11-27T04:24:37.218Z,13.40
2018-11-27T04:25:37.199Z,13.40
2018-11-27T04:26:37.185Z,14.10
2018-11-27T04:27:37.171Z,13.60
2018-11-27T04:28:37.174Z,13.00
2018-11-27T04:29:37.152Z,12.50
2018-11-27T04:30:37.138Z,13.60
2018-11-27T04:31:37.821Z,13.70
2018-11-27T04:32:37.121Z,13.20
2018-11-27T04:33:37.118Z,12.60
2018-11-27T04:34:37.098Z,13.80
2018-11-27T04:35:37.086Z,12.80
2018-11-27T04:36:37.079Z,13.30
2018-11-27T04:37:37.065Z,13.70
2018-11-27T04:38:37.074Z,13.60
2018-11-27T04:39:37.042Z,12.90
2018-11-27T04:40:37.031Z,13.20
2018-11-27T04:41:37.017Z,13.50
2018-11-27T04:42:37.017Z,12.90
2018-11-27T04:43:37.018Z,13.80
2018-11-27T04:44:36.984Z,13.20
2018-11-27T04:45:36.974Z,13.50
2018-11-27T04:46:36.971Z,12.80
2018-11-27T04:47:36.955Z,12.70
2018-11-27T04:48:36.958Z,13.60
2018-11-27T04:49:36.937Z,12.90
2018-11-27T04:50:36.919Z,13.10
2018-11-27T04:51:36.910Z,12.70
2018-11-27T04:52:36.899Z,12.70
2018-11-27T04:53:36.886Z,13.10
2018-11-27T04:54:36.889Z,13.10
2018-11-27T04:55:36.867Z,13.70
2018-11-27T04:56:36.853Z,12.70
2018-11-27T04:57:36.845Z,12.70
2018-11-27T04:58:36.837Z,12.50
2018-11-27T04:59:36.841Z,13.40
2018-11-27T05:00:36.810Z,12.20
2018-11-27T05:01:36.798Z,12.40
2018-11-27T05:02:36.791Z,12.10
2018-11-27T05:03:36.779Z,12.40
2018-11-27T05:04:36.778Z,12.20
2018-11-27T05:05:36.761Z,12.80
2018-11-27T05:06:36.754Z,12.20
2018-11-27T05:07:36.757Z,12.80
2018-11-27T05:08:36.722Z,12.20
2018-11-27T05:09:36.723Z,12.60
2018-11-27T05:10:43.748Z,13.10
2018-11-27T05:11:36.698Z,12.30
2018-11-27T05:12:36.680Z,13.00
2018-11-27T05:13:36.667Z,13.30
2018-11-27T05:14:36.673Z,12.70
2018-11-27T05:15:36.647Z,12.60
2018-11-27T05:16:36.634Z,12.80
2018-11-27T05:17:36.622Z,12.80
2018-11-27T05:18:36.613Z,12.30
2018-11-27T05:19:36.611Z,12.80
2018-11-27T05:20:36.591Z,12.60
2018-11-27T05:21:36.581Z,12.60
2018-11-27T05:22:36.571Z,12.40
2018-11-27T05:23:36.564Z,12.60
2018-11-27T05:24:36.556Z,12.70
2018-11-27T05:25:36.537Z,12.80
2018-11-27T05:26:36.526Z,12.60
2018-11-27T05:27:36.523Z,12.60
2018-11-27T05:28:36.511Z,12.20
2018-11-27T05:29:36.507Z,12.20
2018-11-27T05:30:36.483Z,12.20
2018-11-27T05:31:36.470Z,13.20
2018-11-27T05:32:36.462Z,12.60
2018-11-27T05:33:36.449Z,12.00
2018-11-27T05:34:36.451Z,12.50
2018-11-27T05:35:36.426Z,12.40
2018-11-27T05:36:36.416Z,12.70
2018-11-27T05:37:36.403Z,11.70
2018-11-27T05:38:36.392Z,12.40
2018-11-27T05:39:36.395Z,12.60
2018-11-27T05:40:36.374Z,12.80
2018-11-27T05:41:36.361Z,12.30
2018-11-27T05:42:36.349Z,12.60
2018-11-27T05:43:36.342Z,12.40
2018-11-27T05:44:36.344Z,11.90
2018-11-27T05:45:36.326Z,13.30
2018-11-27T05:46:36.305Z,12.40
2018-11-27T05:47:36.292Z,11.70
2018-11-27T05:48:36.281Z,12.50
2018-11-27T05:49:36.283Z,12.50
2018-11-27T05:50:36.261Z,12.40
2018-11-27T05:51:36.260Z,11.80
2018-11-27T05:52:36.238Z,12.80
2018-11-27T05:53:36.226Z,12.30
2018-11-27T05:54:36.228Z,12.50
2018-11-27T05:55:36.206Z,11.80
2018-11-27T05:56:36.203Z,12.00
2018-11-27T05:57:36.190Z,12.10
2018-11-27T05:58:36.178Z,12.00
2018-11-27T05:59:36.181Z,12.00
2018-11-27T06:00:36.157Z,11.60
2018-11-27T06:01:36.151Z,11.30
2018-11-27T06:02:36.135Z,12.10
2018-11-27T06:03:36.121Z,12.40
2018-11-27T06:04:36.122Z,12.20
2018-11-27T06:05:36.095Z,12.20
2018-11-27T06:06:36.086Z,11.90
2018-11-27T06:07:36.078Z,11.70
2018-11-27T06:08:36.070Z,12.10
2018-11-27T06:09:36.064Z,11.40
2018-11-27T06:10:36.043Z,11.90
2018-11-27T06:11:36.035Z,11.90
2018-11-27T06:12:36.020Z,11.50
2018-11-27T06:13:36.011Z,11.90
2018-11-27T06:14:36.015Z,11.50
2018-11-27T06:15:35.987Z,11.40
2018-11-27T06:16:35.980Z,11.70
2018-11-27T06:17:35.968Z,11.80
2018-11-27T06:18:35.958Z,11.50
2018-11-27T06:19:35.958Z,12.20
2018-11-27T06:20:35.933Z,11.60
2018-11-27T06:21:35.971Z,11.70
2018-11-27T06:22:36.858Z,11.70
2018-11-27T06:23:35.899Z,10.70
2018-11-27T06:24:35.922Z,11.00
2018-11-27T06:25:35.887Z,11.70
2018-11-27T06:26:35.866Z,11.30
2018-11-27T06:27:35.855Z,11.70
2018-11-27T06:28:35.847Z,11.10
2018-11-27T06:29:35.833Z,11.70
2018-11-27T06:30:35.843Z,11.80
2018-11-27T06:31:35.812Z,11.00
2018-11-27T06:32:35.803Z,11.80
2018-11-27T06:33:35.790Z,11.50
2018-11-27T06:34:35.779Z,11.70
2018-11-27T06:35:35.783Z,11.60
2018-11-27T06:36:35.759Z,11.70
2018-11-27T06:37:35.757Z,11.80
2018-11-27T06:38:35.737Z,11.90
2018-11-27T06:39:35.727Z,11.20
2018-11-27T06:40:35.727Z,11.20
2018-11-27T06:41:35.704Z,11.00
2018-11-27T06:42:35.697Z,11.50
2018-11-27T06:43:35.681Z,11.40
2018-11-27T06:44:35.673Z,11.70
2018-11-27T06:45:35.670Z,11.60
2018-11-27T06:46:35.646Z,11.10
2018-11-27T06:47:35.637Z,11.20
2018-11-27T06:48:35.627Z,11.40
2018-11-27T06:49:35.614Z,11.70
2018-11-27T06:50:35.611Z,11.60
2018-11-27T06:51:35.596Z,11.10
2018-11-27T06:52:35.621Z,11.20
2018-11-27T06:53:35.569Z,11.60
2018-11-27T06:54:35.570Z,11.80
2018-11-27T06:55:35.558Z,11.30
2018-11-27T06:56:35.540Z,11.20
2018-11-27T06:57:35.526Z,11.60
2018-11-27T06:58:35.516Z,11.90
2018-11-27T06:59:35.507Z,11.60
2018-11-27T07:00:35.511Z,11.20
2018-11-27T07:01:35.482Z,11.00
2018-11-27T07:02:35.472Z,11.70
2018-11-27T07:03:35.462Z,11.80
2018-11-27T07:04:35.454Z,12.10
2018-11-27T07:05:35.450Z,12.40
2018-11-27T07:06:35.428Z,11.80
2018-11-27T07:07:35.417Z,11.80
2018-11-27T07:08:35.408Z,12.20
2018-11-27T07:09:35.398Z,11.90
2018-11-27T07:10:35.397Z,11.90
2018-11-27T07:11:35.378Z,11.90
2018-11-27T07:12:35.365Z,12.00
2018-11-27T07:13:35.353Z,12.70
2018-11-27T07:14:35.340Z,12.00
2018-11-27T07:15:35.351Z,12.20
2018-11-27T07:16:35.325Z,12.30
2018-11-27T07:17:35.322Z,12.00
2018-11-27T07:18:35.297Z,12.70
2018-11-27T07:19:35.291Z,12.20
2018-11-27T07:20:35.286Z,12.00
2018-11-27T07:21:35.269Z,12.00
2018-11-27T07:22:35.257Z,12.20
2018-11-27T07:23:35.242Z,11.60
2018-11-27T07:24:35.235Z,12.00
2018-11-27T07:25:35.232Z,11.60
2018-11-27T07:26:35.210Z,11.30
2018-11-27T07:27:35.199Z,11.60
2018-11-27T07:28:35.196Z,11.70
2018-11-27T07:29:35.179Z,12.00
2018-11-27T07:30:35.178Z,11.80
2018-11-27T07:31:35.155Z,12.30
2018-11-27T07:32:35.144Z,12.10
2018-11-27T07:33:35.133Z,12.00
2018-11-27T07:34:35.135Z,12.10
2018-11-27T07:35:35.124Z,12.30
2018-11-27T07:36:35.101Z,12.20
2018-11-27T07:37:35.092Z,12.80
2018-11-27T07:38:35.080Z,12.10
2018-11-27T07:39:35.067Z,12.50
2018-11-27T07:40:35.090Z,12.40
2018-11-27T07:41:35.045Z,12.10
2018-11-27T07:42:35.035Z,11.60
2018-11-27T07:43:35.025Z,12.60
2018-11-27T07:44:35.015Z,12.30
2018-11-27T07:45:35.004Z,12.30
2018-11-27T07:46:35.010Z,12.10
2018-11-27T07:47:34.979Z,12.70
2018-11-27T07:48:34.968Z,12.50
2018-11-27T07:49:34.958Z,12.60
2018-11-27T07:50:34.946Z,12.60
2018-11-27T07:51:34.961Z,12.30
2018-11-27T07:52:34.928Z,12.30
2018-11-27T07:53:34.915Z,12.50
2018-11-27T07:54:34.904Z,13.10
2018-11-27T07:55:34.893Z,12.50
2018-11-27T07:56:34.895Z,11.30
2018-11-27T07:57:34.874Z,11.90
2018-11-27T07:58:34.862Z,12.40
2018-11-27T07:59:34.850Z,11.80
2018-11-27T08:00:34.848Z,11.60
2018-11-27T08:01:34.845Z,12.00
2018-11-27T08:02:34.819Z,11.70
2018-11-27T08:03:34.806Z,12.20
2018-11-27T08:04:34.795Z,12.10
2018-11-27T08:05:34.783Z,11.00
2018-11-27T08:06:34.791Z,11.20
2018-11-27T08:07:34.766Z,11.30
2018-11-27T08:08:34.751Z,11.80
2018-11-27T08:09:34.739Z,12.10
2018-11-27T08:10:34.729Z,12.10
2018-11-27T08:11:34.725Z,11.70
2018-11-27T08:12:34.708Z,11.40
2018-11-27T08:13:34.704Z,11.50
2018-11-27T08:14:34.695Z,11.60
2018-11-27T08:15:34.680Z,11.70
2018-11-27T08:16:34.676Z,12.20
2018-11-27T08:17:34.654Z,12.40
2018-11-27T08:18:34.640Z,12.40
2018-11-27T08:19:34.638Z,12.50
2018-11-27T08:20:34.618Z,12.70
2018-11-27T08:21:34.617Z,12.70
2018-11-27T08:22:34.595Z,12.80
2018-11-27T08:23:34.590Z,12.60
2018-11-27T08:24:34.577Z,12.40
2018-11-27T08:25:34.564Z,12.90
2018-11-27T08:26:34.569Z,13.70
2018-11-27T08:27:34.540Z,13.50
2018-11-27T08:28:34.528Z,12.40
2018-11-27T08:29:34.518Z,12.40
2018-11-27T08:30:34.513Z,12.90
2018-11-27T08:31:34.509Z,13.30
2018-11-27T08:32:34.486Z,13.30
2018-11-27T08:33:34.474Z,13.30
2018-11-27T08:34:34.462Z,13.30
2018-11-27T08:35:34.461Z,12.70
2018-11-27T08:36:34.453Z,13.60
2018-11-27T08:37:34.431Z,13.10
2018-11-27T08:38:34.422Z,14.20
2018-11-27T08:39:34.408Z,14.70
2018-11-27T08:40:34.401Z,13.10
2018-11-27T08:41:40.397Z,14.20
2018-11-27T08:42:35.375Z,14.40
2018-11-27T08:43:34.364Z,14.30
2018-11-27T08:44:34.358Z,14.40
2018-11-27T08:45:34.342Z,14.70
2018-11-27T08:46:34.349Z,16.00
2018-11-27T08:47:34.323Z,15.80
2018-11-27T08:48:35.113Z,16.90
2018-11-27T08:49:34.297Z,16.60
2018-11-27T08:50:34.288Z,16.20
2018-11-27T08:51:34.288Z,17.20
2018-11-27T08:52:34.280Z,15.40
2018-11-27T08:53:34.256Z,17.30
2018-11-27T08:54:34.245Z,16.70
2018-11-27T08:55:34.232Z,15.60
2018-11-27T08:56:34.222Z,15.00
2018-11-27T08:57:34.220Z,15.00
2018-11-27T08:58:34.200Z,15.40
2018-11-27T08:59:34.194Z,14.90
2018-11-27T09:00:34.173Z,14.40
2018-11-27T09:01:34.175Z,14.40
2018-11-27T09:02:34.152Z,14.40
2018-11-27T09:03:34.142Z,15.10
2018-11-27T09:04:34.132Z,15.30
2018-11-27T09:05:34.136Z,15.80
2018-11-27T09:06:34.121Z,14.40
2018-11-27T09:07:34.102Z,14.20
2018-11-27T09:08:34.085Z,14.50
2018-11-27T09:09:34.082Z,13.80
2018-11-27T09:10:34.067Z,14.00
2018-11-27T09:11:34.102Z,14.40
2018-11-27T09:12:34.042Z,14.90
2018-11-27T09:13:34.030Z,13.90
2018-11-27T09:14:34.019Z,13.20
2018-11-27T09:15:34.012Z,11.30
2018-11-27T09:16:34.003Z,12.40
2018-11-27T09:17:34.010Z,12.30
2018-11-27T09:18:33.973Z,12.70
2018-11-27T09:19:33.962Z,12.70
2018-11-27T09:20:33.975Z,11.00
2018-11-27T09:21:33.957Z,11.70
2018-11-27T09:22:33.952Z,10.60
2018-11-27T09:23:33.918Z,11.30
2018-11-27T09:24:33.906Z,11.50
2018-11-27T09:25:33.893Z,11.90
2018-11-27T09:26:33.888Z,11.20
2018-11-27T09:27:33.894Z,11.20
2018-11-27T09:28:33.866Z,10.70
2018-11-27T09:29:33.850Z,11.70
2018-11-27T09:30:33.838Z,11.00
2018-11-27T09:31:33.831Z,11.20
2018-11-27T09:32:33.835Z,11.80
2018-11-27T09:33:33.812Z,10.70
2018-11-27T09:34:33.796Z,11.10
2018-11-27T09:35:33.785Z,11.40
2018-11-27T09:36:33.773Z,10.20
2018-11-27T09:37:33.772Z,10.90
2018-11-27T09:38:33.749Z,10.60
2018-11-27T09:39:33.743Z,10.80
2018-11-27T09:40:33.727Z,10.60
2018-11-27T09:41:33.714Z,10.80
2018-11-27T09:42:33.716Z,11.30
2018-11-27T09:43:33.694Z,11.20
2018-11-27T09:44:33.690Z,10.60
2018-11-27T09:45:33.670Z,10.20
2018-11-27T09:46:33.661Z,10.50
2018-11-27T09:47:33.659Z,10.50
2018-11-27T09:48:33.638Z,10.70
2018-11-27T09:49:33.638Z,11.10
2018-11-27T09:50:33.617Z,10.40
2018-11-27T09:51:33.604Z,11.00
2018-11-27T09:52:33.608Z,10.80
2018-11-27T09:53:34.132Z,10.20
2018-11-27T09:54:33.573Z,9.70
2018-11-27T09:55:33.562Z,9.30
2018-11-27T09:56:33.549Z,9.90
2018-11-27T09:57:33.548Z,9.70
2018-11-27T09:58:33.526Z,9.30
2018-11-27T09:59:33.527Z,9.60
2018-11-27T10:00:33.509Z,9.90
2018-11-27T10:01:33.493Z,9.80
2018-11-27T10:02:33.496Z,10.40
2018-11-27T10:03:33.471Z,10.20
2018-11-27T10:04:33.460Z,10.10
2018-11-27T10:05:33.457Z,9.60
2018-11-27T10:06:33.476Z,9.70
2018-11-27T10:07:33.442Z,9.90
2018-11-27T10:08:33.431Z,10.40
2018-11-27T10:09:33.411Z,10.30
2018-11-27T10:10:33.402Z,10.20
2018-11-27T10:11:33.381Z,10.00
2018-11-27T10:12:34.361Z,10.60
2018-11-27T10:13:33.360Z,10.00
2018-11-27T10:14:33.346Z,10.30
2018-11-27T10:15:33.367Z,10.30
2018-11-27T10:16:33.859Z,10.50
2018-11-27T10:17:35.360Z,11.00
2018-11-27T10:18:33.830Z,10.10
2018-11-27T10:19:35.417Z,10.20
2018-11-27T10:20:33.831Z,10.30
2018-11-27T10:21:34.350Z,10.80
2018-11-27T10:22:34.338Z,11.50
2018-11-27T10:23:33.259Z,11.40
2018-11-27T10:24:33.253Z,11.60
2018-11-27T10:25:33.923Z,12.10
2018-11-27T10:26:33.872Z,12.10
2018-11-27T10:27:37.340Z,12.20
2018-11-27T10:28:33.204Z,11.80
2018-11-27T10:29:33.313Z,12.30
2018-11-27T10:30:33.271Z,12.30
2018-11-27T10:31:33.928Z,12.60
2018-11-27T10:32:36.019Z,12.20
2018-11-27T10:33:34.511Z,13.20
2018-11-27T10:34:35.066Z,12.50
2018-11-27T10:35:33.131Z,12.70
2018-11-27T10:36:33.108Z,12.60
2018-11-27T10:37:33.107Z,12.60
2018-11-27T10:38:33.089Z,13.60
2018-11-27T10:39:33.867Z,13.80
2018-11-27T10:40:33.067Z,13.40
2018-11-27T10:41:33.060Z,14.40
2018-11-27T10:42:33.066Z,14.10
2018-11-27T10:45:04.701Z,12.20
2018-11-27T10:46:04.672Z,12.90
2018-11-27T10:47:04.671Z,12.70
2018-11-27T10:49:56.664Z,12.60
2018-11-27T10:50:56.462Z,13.10
2018-11-27T10:52:03.564Z,13.30
2018-11-27T10:54:23.419Z,10.00
2018-11-27T10:55:23.042Z,12.90
2018-11-27T10:58:22.555Z,8.00
2018-11-27T10:59:33.122Z,10.80
2018-11-27T11:01:42.206Z,10.60
2018-11-27T11:02:49.248Z,10.60
2018-11-27T11:10:31.005Z,10.10
2018-11-27T11:12:57.002Z,9.30
2018-11-27T11:16:07.394Z,8.80
2018-11-27T11:17:07.378Z,9.00
2018-11-27T11:19:27.122Z,7.20
2018-11-27T11:21:57.280Z,8.00
2018-11-27T11:24:57.311Z,8.30
2018-11-27T11:26:09.852Z,9.50
2018-11-27T11:27:19.685Z,9.10
2018-11-27T11:29:26.385Z,10.30
2018-11-27T11:30:37.951Z,10.30
2018-11-27T11:31:26.354Z,9.90
2018-11-27T11:32:38.368Z,10.20
2018-11-27T11:33:26.348Z,9.70
2018-11-27T11:34:26.319Z,10.40
2018-11-27T11:35:41.840Z,9.60
2018-11-27T11:36:26.298Z,10.10
2018-11-27T11:37:26.280Z,9.60
2018-11-27T11:38:26.281Z,10.00
2018-11-27T11:39:26.265Z,9.30
2018-11-27T11:40:26.306Z,9.00
2018-11-27T11:41:31.158Z,10.00
2018-11-27T11:42:27.220Z,9.60
2018-11-27T11:43:26.221Z,9.70
2018-11-27T11:44:26.200Z,9.40
2018-11-27T11:45:26.186Z,10.60
2018-11-27T11:46:26.179Z,10.20
2018-11-27T11:47:26.176Z,9.80
2018-11-27T11:48:26.172Z,10.40
2018-11-27T11:49:26.148Z,10.40
2018-11-27T11:50:26.132Z,10.60
2018-11-27T11:51:26.121Z,10.10
2018-11-27T11:52:38.154Z,10.60
2018-11-27T11:53:26.118Z,10.70
2018-11-27T11:54:39.864Z,10.60
2018-11-27T11:55:39.218Z,10.30
2018-11-27T11:56:40.128Z,10.40
2018-11-27T11:57:41.861Z,10.60
2018-11-27T11:58:26.058Z,10.10
2018-11-27T11:59:34.585Z,10.20
2018-11-27T12:00:26.020Z,9.90
2018-11-27T12:01:39.331Z,10.00
2018-11-27T12:02:37.867Z,9.80
2018-11-27T12:03:38.018Z,10.20
2018-11-27T12:04:25.983Z,10.50
2018-11-27T12:05:25.997Z,9.80
2018-11-27T12:06:37.980Z,9.90
2018-11-27T12:07:34.722Z,11.00
2018-11-27T12:08:34.885Z,9.80
2018-11-27T12:09:25.923Z,9.60
2018-11-27T12:10:36.930Z,9.90
2018-11-27T12:11:38.927Z,10.00
2018-11-27T12:12:33.508Z,10.60
2018-11-27T12:13:38.954Z,11.30
2018-11-27T12:14:34.470Z,10.80
2018-11-27T12:15:39.178Z,10.70
2018-11-27T12:16:39.846Z,11.40
2018-11-27T12:17:38.868Z,11.00
2018-11-27T12:18:39.085Z,11.00
2018-11-27T12:19:38.935Z,11.80
2018-11-27T12:20:26.808Z,11.30
2018-11-27T12:21:38.415Z,11.10
2018-11-27T12:22:40.307Z,11.20
2018-11-27T12:23:25.761Z,11.30
2018-11-27T12:24:25.765Z,11.60
2018-11-27T12:25:32.785Z,12.50
2018-11-27T12:26:32.785Z,13.00
2018-11-27T12:27:32.773Z,12.90
2018-11-27T12:29:57.369Z,12.10
2018-11-27T12:31:10.294Z,13.20
2018-11-27T12:31:57.336Z,12.60
2018-11-27T12:33:09.361Z,13.10
2018-11-27T12:35:27.962Z,10.00
2018-11-27T12:38:07.149Z,12.30
2018-11-27T12:41:17.715Z,13.00
2018-11-27T12:42:29.596Z,13.80
2018-11-27T12:43:28.538Z,13.80
2018-11-27T12:44:28.547Z,13.30
2018-11-27T12:45:18.523Z,13.30
2018-11-27T12:46:17.497Z,13.90
2018-11-27T12:47:17.597Z,13.40
2018-11-27T12:48:17.490Z,13.70
2018-11-27T12:49:17.475Z,13.20
2018-11-27T12:50:17.451Z,13.20
2018-11-27T12:51:17.870Z,13.40
2018-11-27T12:52:17.427Z,13.60
2018-11-27T12:53:17.426Z,13.50
2018-11-27T12:54:17.460Z,13.20
2018-11-27T12:55:17.403Z,12.90
2018-11-27T12:56:17.404Z,12.40
2018-11-27T12:57:17.377Z,13.00
2018-11-27T12:58:17.362Z,12.90
2018-11-27T12:59:17.363Z,12.40
2018-11-27T13:00:17.341Z,12.50
2018-11-27T13:01:17.336Z,12.90
2018-11-27T13:02:17.320Z,12.10
2018-11-27T13:03:17.311Z,12.60
2018-11-27T13:04:17.310Z,11.40
2018-11-27T13:05:17.286Z,11.20
2018-11-27T13:06:18.247Z,11.20
2018-11-27T13:07:17.270Z,10.70
2018-11-27T13:08:17.252Z,10.80
2018-11-27T13:09:17.251Z,10.80
2018-11-27T13:10:17.231Z,10.70
2018-11-27T13:11:17.229Z,10.70
2018-11-27T13:12:17.224Z,10.20
2018-11-27T13:13:17.232Z,10.90
2018-11-27T13:14:17.206Z,10.60
2018-11-27T13:15:17.174Z,10.80
2018-11-27T13:16:17.165Z,10.00
2018-11-27T13:17:17.183Z,10.40
2018-11-27T13:18:17.148Z,10.00
2018-11-27T13:19:17.173Z,10.30
2018-11-27T13:20:18.277Z,9.30
2018-11-27T13:21:17.116Z,9.60
2018-11-27T13:22:17.103Z,9.90
2018-11-27T13:23:17.101Z,9.40
2018-11-27T13:24:17.075Z,9.30
2018-11-27T13:25:17.077Z,9.10
2018-11-27T13:26:17.052Z,8.90
2018-11-27T13:27:17.047Z,8.30